sensor_id;sensor_type;location;lat;lon;timestamp;P1;durP1;ratioP1;P2;durP2;ratioP2
17848;SDS011;9050;48.746;9.232;2023-02-12T00:00:06;1.13;;;1.13;;
17848;SDS011;9050;48.746;9.232;2023-02-12T00:02:34;1.10;;;1.10;;
17848;SDS011;9050;48.746;9.232;2023-02-12T00:05:00;1.17;;;1.17;;
17848;SDS011;9050;48.746;9.232;2023-02-12T00:07:28;1.03;;;1.03;;
17848;SDS011;9050;48.746;9.232;2023-02-12T00:09:56;1.27;;;1.27;;
17848;SDS011;9050;48.746;9.232;2023-02-12T00:12:24;1.27;;;1.27;;
17848;SDS011;9050;48.746;9.232;2023-02-12T00:14:51;1.10;;;1.10;;
17848;SDS011;9050;48.746;9.232;2023-02-12T00:17:17;1.10;;;1.10;;
17848;SDS011;9050;48.746;9.232;2023-02-12T00:19:45;1.30;;;1.30;;
17848;SDS011;9050;48.746;9.232;2023-02-12T00:22:12;1.10;;;1.10;;
17848;SDS011;9050;48.746;9.232;2023-02-12T00:24:39;1.30;;;1.30;;
17848;SDS011;9050;48.746;9.232;2023-02-12T00:27:06;1.23;;;1.23;;
17848;SDS011;9050;48.746;9.232;2023-02-12T00:29:34;1.10;;;1.10;;
17848;SDS011;9050;48.746;9.232;2023-02-12T00:32:02;1.30;;;1.30;;
17848;SDS011;9050;48.746;9.232;2023-02-12T00:34:29;1.00;;;1.00;;
17848;SDS011;9050;48.746;9.232;2023-02-12T00:36:56;1.10;;;1.10;;
17848;SDS011;9050;48.746;9.232;2023-02-12T00:39:23;1.00;;;1.00;;
17848;SDS011;9050;48.746;9.232;2023-02-12T00:41:49;0.70;;;0.70;;
17848;SDS011;9050;48.746;9.232;2023-02-12T00:44:16;0.90;;;0.90;;
17848;SDS011;9050;48.746;9.232;2023-02-12T00:46:44;0.70;;;0.70;;
17848;SDS011;9050;48.746;9.232;2023-02-12T00:49:11;0.90;;;0.90;;
17848;SDS011;9050;48.746;9.232;2023-02-12T00:51:38;1.40;;;1.40;;
17848;SDS011;9050;48.746;9.232;2023-02-12T00:54:05;0.93;;;0.93;;
17848;SDS011;9050;48.746;9.232;2023-02-12T00:56:32;1.00;;;1.00;;
17848;SDS011;9050;48.746;9.232;2023-02-12T00:58:58;0.90;;;0.90;;
17848;SDS011;9050;48.746;9.232;2023-02-12T01:01:25;1.13;;;1.13;;
17848;SDS011;9050;48.746;9.232;2023-02-12T01:03:54;1.10;;;1.10;;
17848;SDS011;9050;48.746;9.232;2023-02-12T01:06:20;1.07;;;1.07;;
17848;SDS011;9050;48.746;9.232;2023-02-12T01:08:49;1.00;;;1.00;;
17848;SDS011;9050;48.746;9.232;2023-02-12T01:11:16;0.93;;;0.93;;
17848;SDS011;9050;48.746;9.232;2023-02-12T01:13:43;0.90;;;0.90;;
17848;SDS011;9050;48.746;9.232;2023-02-12T01:16:12;1.27;;;1.27;;
17848;SDS011;9050;48.746;9.232;2023-02-12T01:18:41;1.17;;;1.17;;
17848;SDS011;9050;48.746;9.232;2023-02-12T01:21:10;1.10;;;1.10;;
17848;SDS011;9050;48.746;9.232;2023-02-12T01:23:39;1.00;;;1.00;;
17848;SDS011;9050;48.746;9.232;2023-02-12T01:26:06;1.03;;;1.03;;
17848;SDS011;9050;48.746;9.232;2023-02-12T01:28:34;1.20;;;1.20;;
17848;SDS011;9050;48.746;9.232;2023-02-12T01:31:06;0.97;;;0.97;;
17848;SDS011;9050;48.746;9.232;2023-02-12T01:33:34;1.00;;;1.00;;
17848;SDS011;9050;48.746;9.232;2023-02-12T01:36:01;1.00;;;1.00;;
17848;SDS011;9050;48.746;9.232;2023-02-12T01:38:29;1.27;;;1.27;;
17848;SDS011;9050;48.746;9.232;2023-02-12T01:41:00;1.20;;;1.20;;
17848;SDS011;9050;48.746;9.232;2023-02-12T01:43:28;1.00;;;1.00;;
17848;SDS011;9050;48.746;9.232;2023-02-12T01:45:57;0.97;;;0.97;;
17848;SDS011;9050;48.746;9.232;2023-02-12T01:48:26;0.90;;;0.90;;
17848;SDS011;9050;48.746;9.232;2023-02-12T01:50:55;1.00;;;1.00;;
17848;SDS011;9050;48.746;9.232;2023-02-12T01:53:25;1.10;;;1.10;;
17848;SDS011;9050;48.746;9.232;2023-02-12T01:55:59;0.97;;;0.97;;
17848;SDS011;9050;48.746;9.232;2023-02-12T01:58:29;1.03;;;1.03;;
17848;SDS011;9050;48.746;9.232;2023-02-12T02:00:59;1.10;;;1.10;;
17848;SDS011;9050;48.746;9.232;2023-02-12T02:03:27;1.00;;;1.00;;
17848;SDS011;9050;48.746;9.232;2023-02-12T02:05:55;1.00;;;1.00;;
17848;SDS011;9050;48.746;9.232;2023-02-12T02:08:26;1.20;;;1.20;;
17848;SDS011;9050;48.746;9.232;2023-02-12T02:10:53;1.27;;;1.27;;
17848;SDS011;9050;48.746;9.232;2023-02-12T02:13:22;0.90;;;0.90;;
17848;SDS011;9050;48.746;9.232;2023-02-12T02:16:09;1.07;;;1.07;;
17848;SDS011;9050;48.746;9.232;2023-02-12T02:18:46;1.00;;;1.00;;
17848;SDS011;9050;48.746;9.232;2023-02-12T02:21:25;1.10;;;1.10;;
17848;SDS011;9050;48.746;9.232;2023-02-12T02:24:25;1.17;;;1.17;;
17848;SDS011;9050;48.746;9.232;2023-02-12T02:27:16;1.03;;;1.03;;
17848;SDS011;9050;48.746;9.232;2023-02-12T02:29:52;0.90;;;0.90;;
17848;SDS011;9050;48.746;9.232;2023-02-12T02:32:44;1.30;;;1.30;;
17848;SDS011;9050;48.746;9.232;2023-02-12T02:35:23;1.20;;;1.20;;
17848;SDS011;9050;48.746;9.232;2023-02-12T02:37:56;1.10;;;1.10;;
17848;SDS011;9050;48.746;9.232;2023-02-12T02:40:36;1.30;;;1.30;;
17848;SDS011;9050;48.746;9.232;2023-02-12T02:43:07;1.10;;;1.10;;
17848;SDS011;9050;48.746;9.232;2023-02-12T02:45:42;1.20;;;1.20;;
17848;SDS011;9050;48.746;9.232;2023-02-12T02:48:13;1.07;;;1.07;;
17848;SDS011;9050;48.746;9.232;2023-02-12T02:50:45;1.23;;;1.23;;
17848;SDS011;9050;48.746;9.232;2023-02-12T02:53:16;1.10;;;1.10;;
17848;SDS011;9050;48.746;9.232;2023-02-12T02:55:48;1.20;;;1.20;;
17848;SDS011;9050;48.746;9.232;2023-02-12T02:58:19;1.10;;;1.10;;
17848;SDS011;9050;48.746;9.232;2023-02-12T03:00:51;1.07;;;1.07;;
17848;SDS011;9050;48.746;9.232;2023-02-12T03:03:23;1.13;;;1.13;;
17848;SDS011;9050;48.746;9.232;2023-02-12T03:05:57;1.00;;;1.00;;
17848;SDS011;9050;48.746;9.232;2023-02-12T03:08:28;1.30;;;1.30;;
17848;SDS011;9050;48.746;9.232;2023-02-12T03:11:01;1.20;;;1.20;;
17848;SDS011;9050;48.746;9.232;2023-02-12T03:13:33;1.20;;;1.20;;
17848;SDS011;9050;48.746;9.232;2023-02-12T03:16:05;1.00;;;1.00;;
17848;SDS011;9050;48.746;9.232;2023-02-12T03:18:35;0.93;;;0.93;;
17848;SDS011;9050;48.746;9.232;2023-02-12T03:21:08;1.20;;;1.20;;
17848;SDS011;9050;48.746;9.232;2023-02-12T03:23:39;1.10;;;1.10;;
17848;SDS011;9050;48.746;9.232;2023-02-12T03:26:10;1.20;;;1.20;;
17848;SDS011;9050;48.746;9.232;2023-02-12T03:28:42;0.90;;;0.90;;
17848;SDS011;9050;48.746;9.232;2023-02-12T03:31:11;1.13;;;1.13;;
17848;SDS011;9050;48.746;9.232;2023-02-12T03:33:48;1.00;;;1.00;;
17848;SDS011;9050;48.746;9.232;2023-02-12T03:36:25;1.30;;;1.30;;
17848;SDS011;9050;48.746;9.232;2023-02-12T03:39:08;1.40;;;1.40;;
17848;SDS011;9050;48.746;9.232;2023-02-12T03:41:41;1.40;;;1.40;;
17848;SDS011;9050;48.746;9.232;2023-02-12T03:44:14;1.23;;;1.23;;
17848;SDS011;9050;48.746;9.232;2023-02-12T03:46:50;1.53;;;1.53;;
17848;SDS011;9050;48.746;9.232;2023-02-12T03:49:26;1.33;;;1.33;;
17848;SDS011;9050;48.746;9.232;2023-02-12T03:51:55;1.30;;;1.30;;
17848;SDS011;9050;48.746;9.232;2023-02-12T03:54:23;1.60;;;1.60;;
17848;SDS011;9050;48.746;9.232;2023-02-12T03:56:51;1.40;;;1.40;;
17848;SDS011;9050;48.746;9.232;2023-02-12T03:59:22;1.40;;;1.40;;
17848;SDS011;9050;48.746;9.232;2023-02-12T04:01:52;1.60;;;1.60;;
17848;SDS011;9050;48.746;9.232;2023-02-12T04:04:20;1.60;;;1.60;;
17848;SDS011;9050;48.746;9.232;2023-02-12T04:06:49;1.10;;;1.10;;
17848;SDS011;9050;48.746;9.232;2023-02-12T04:09:17;1.40;;;1.40;;
17848;SDS011;9050;48.746;9.232;2023-02-12T04:11:46;1.70;;;1.67;;
17848;SDS011;9050;48.746;9.232;2023-02-12T04:14:25;1.33;;;1.33;;
17848;SDS011;9050;48.746;9.232;2023-02-12T04:17:03;1.30;;;1.30;;
17848;SDS011;9050;48.746;9.232;2023-02-12T04:19:38;1.50;;;1.50;;
17848;SDS011;9050;48.746;9.232;2023-02-12T04:22:14;1.30;;;1.30;;
17848;SDS011;9050;48.746;9.232;2023-02-12T04:24:53;1.57;;;1.57;;
17848;SDS011;9050;48.746;9.232;2023-02-12T04:27:25;1.47;;;1.47;;
17848;SDS011;9050;48.746;9.232;2023-02-12T04:30:03;1.10;;;1.10;;
17848;SDS011;9050;48.746;9.232;2023-02-12T04:32:36;1.23;;;1.23;;
17848;SDS011;9050;48.746;9.232;2023-02-12T04:35:08;1.50;;;1.50;;
17848;SDS011;9050;48.746;9.232;2023-02-12T04:37:41;1.40;;;1.40;;
17848;SDS011;9050;48.746;9.232;2023-02-12T04:40:12;1.47;;;1.47;;
17848;SDS011;9050;48.746;9.232;2023-02-12T04:42:41;1.47;;;1.47;;
17848;SDS011;9050;48.746;9.232;2023-02-12T04:45:09;1.10;;;1.10;;
17848;SDS011;9050;48.746;9.232;2023-02-12T04:47:39;1.37;;;1.37;;
17848;SDS011;9050;48.746;9.232;2023-02-12T04:50:06;1.50;;;1.50;;
17848;SDS011;9050;48.746;9.232;2023-02-12T04:52:34;1.30;;;1.30;;
17848;SDS011;9050;48.746;9.232;2023-02-12T04:55:01;1.50;;;1.50;;
17848;SDS011;9050;48.746;9.232;2023-02-12T04:57:27;1.60;;;1.60;;
17848;SDS011;9050;48.746;9.232;2023-02-12T04:59:54;1.20;;;1.20;;
17848;SDS011;9050;48.746;9.232;2023-02-12T05:02:21;1.40;;;1.40;;
17848;SDS011;9050;48.746;9.232;2023-02-12T05:04:50;1.73;;;1.70;;
17848;SDS011;9050;48.746;9.232;2023-02-12T05:07:16;1.73;;;1.67;;
17848;SDS011;9050;48.746;9.232;2023-02-12T05:09:43;1.30;;;1.30;;
17848;SDS011;9050;48.746;9.232;2023-02-12T05:12:10;1.03;;;1.03;;
17848;SDS011;9050;48.746;9.232;2023-02-12T05:14:37;1.30;;;1.30;;
17848;SDS011;9050;48.746;9.232;2023-02-12T05:17:04;1.37;;;1.37;;
17848;SDS011;9050;48.746;9.232;2023-02-12T05:19:31;1.10;;;1.10;;
17848;SDS011;9050;48.746;9.232;2023-02-12T05:21:59;1.43;;;1.43;;
17848;SDS011;9050;48.746;9.232;2023-02-12T05:24:26;1.40;;;1.40;;
17848;SDS011;9050;48.746;9.232;2023-02-12T05:26:53;1.63;;;1.63;;
17848;SDS011;9050;48.746;9.232;2023-02-12T05:29:20;1.60;;;1.60;;
17848;SDS011;9050;48.746;9.232;2023-02-12T05:31:47;1.53;;;1.53;;
17848;SDS011;9050;48.746;9.232;2023-02-12T05:34:14;1.17;;;1.17;;
17848;SDS011;9050;48.746;9.232;2023-02-12T05:36:41;1.30;;;1.30;;
17848;SDS011;9050;48.746;9.232;2023-02-12T05:39:09;1.50;;;1.50;;
17848;SDS011;9050;48.746;9.232;2023-02-12T05:41:36;1.53;;;1.53;;
17848;SDS011;9050;48.746;9.232;2023-02-12T05:44:03;1.27;;;1.27;;
17848;SDS011;9050;48.746;9.232;2023-02-12T05:46:31;1.43;;;1.43;;
17848;SDS011;9050;48.746;9.232;2023-02-12T05:48:58;1.10;;;1.10;;
17848;SDS011;9050;48.746;9.232;2023-02-12T05:51:25;1.50;;;1.50;;
17848;SDS011;9050;48.746;9.232;2023-02-12T05:53:55;1.20;;;1.20;;
17848;SDS011;9050;48.746;9.232;2023-02-12T05:56:25;1.27;;;1.27;;
17848;SDS011;9050;48.746;9.232;2023-02-12T05:58:54;1.53;;;1.53;;
17848;SDS011;9050;48.746;9.232;2023-02-12T06:01:23;1.30;;;1.30;;
17848;SDS011;9050;48.746;9.232;2023-02-12T06:03:52;1.17;;;1.17;;
17848;SDS011;9050;48.746;9.232;2023-02-12T06:06:19;1.27;;;1.27;;
17848;SDS011;9050;48.746;9.232;2023-02-12T06:08:46;1.27;;;1.27;;
17848;SDS011;9050;48.746;9.232;2023-02-12T06:11:14;1.50;;;1.50;;
17848;SDS011;9050;48.746;9.232;2023-02-12T06:13:43;1.70;;;1.67;;
17848;SDS011;9050;48.746;9.232;2023-02-12T06:16:15;1.43;;;1.43;;
17848;SDS011;9050;48.746;9.232;2023-02-12T06:18:43;1.97;;;1.87;;
17848;SDS011;9050;48.746;9.232;2023-02-12T06:21:10;1.50;;;1.50;;
17848;SDS011;9050;48.746;9.232;2023-02-12T06:23:37;1.20;;;1.20;;
17848;SDS011;9050;48.746;9.232;2023-02-12T06:26:04;1.47;;;1.47;;
17848;SDS011;9050;48.746;9.232;2023-02-12T06:28:31;1.40;;;1.40;;
17848;SDS011;9050;48.746;9.232;2023-02-12T06:30:59;1.50;;;1.50;;
17848;SDS011;9050;48.746;9.232;2023-02-12T06:33:26;1.53;;;1.53;;
17848;SDS011;9050;48.746;9.232;2023-02-12T06:35:53;1.50;;;1.50;;
17848;SDS011;9050;48.746;9.232;2023-02-12T06:38:20;1.63;;;1.63;;
17848;SDS011;9050;48.746;9.232;2023-02-12T06:40:47;1.30;;;1.30;;
17848;SDS011;9050;48.746;9.232;2023-02-12T06:43:14;1.33;;;1.33;;
17848;SDS011;9050;48.746;9.232;2023-02-12T06:45:41;1.47;;;1.47;;
17848;SDS011;9050;48.746;9.232;2023-02-12T06:48:09;1.10;;;1.10;;
17848;SDS011;9050;48.746;9.232;2023-02-12T06:50:36;1.53;;;1.53;;
17848;SDS011;9050;48.746;9.232;2023-02-12T06:53:03;1.17;;;1.17;;
17848;SDS011;9050;48.746;9.232;2023-02-12T06:55:30;1.30;;;1.30;;
17848;SDS011;9050;48.746;9.232;2023-02-12T06:57:57;1.10;;;1.10;;
17848;SDS011;9050;48.746;9.232;2023-02-12T07:00:23;1.37;;;1.37;;
17848;SDS011;9050;48.746;9.232;2023-02-12T07:02:51;1.10;;;1.10;;
17848;SDS011;9050;48.746;9.232;2023-02-12T07:05:21;1.30;;;1.30;;
17848;SDS011;9050;48.746;9.232;2023-02-12T07:07:49;1.13;;;1.13;;
17848;SDS011;9050;48.746;9.232;2023-02-12T07:10:16;1.40;;;1.40;;
17848;SDS011;9050;48.746;9.232;2023-02-12T07:12:43;1.27;;;1.27;;
17848;SDS011;9050;48.746;9.232;2023-02-12T07:15:11;1.30;;;1.30;;
17848;SDS011;9050;48.746;9.232;2023-02-12T07:17:38;1.30;;;1.30;;
17848;SDS011;9050;48.746;9.232;2023-02-12T07:20:05;1.20;;;1.20;;
17848;SDS011;9050;48.746;9.232;2023-02-12T07:22:35;1.20;;;1.20;;
17848;SDS011;9050;48.746;9.232;2023-02-12T07:25:02;1.20;;;1.20;;
17848;SDS011;9050;48.746;9.232;2023-02-12T07:27:29;1.40;;;1.40;;
17848;SDS011;9050;48.746;9.232;2023-02-12T07:29:56;1.10;;;1.10;;
17848;SDS011;9050;48.746;9.232;2023-02-12T07:32:23;1.20;;;1.20;;
17848;SDS011;9050;48.746;9.232;2023-02-12T07:34:50;1.10;;;1.10;;
17848;SDS011;9050;48.746;9.232;2023-02-12T07:37:17;0.90;;;0.90;;
17848;SDS011;9050;48.746;9.232;2023-02-12T07:39:48;1.27;;;1.27;;
17848;SDS011;9050;48.746;9.232;2023-02-12T07:42:15;1.20;;;1.20;;
17848;SDS011;9050;48.746;9.232;2023-02-12T07:44:42;1.60;;;1.60;;
17848;SDS011;9050;48.746;9.232;2023-02-12T07:47:09;1.30;;;1.30;;
17848;SDS011;9050;48.746;9.232;2023-02-12T07:49:35;1.20;;;1.20;;
17848;SDS011;9050;48.746;9.232;2023-02-12T07:52:02;1.20;;;1.20;;
17848;SDS011;9050;48.746;9.232;2023-02-12T07:54:29;1.20;;;1.20;;
17848;SDS011;9050;48.746;9.232;2023-02-12T07:56:58;1.40;;;1.40;;
17848;SDS011;9050;48.746;9.232;2023-02-12T07:59:25;1.17;;;1.17;;
17848;SDS011;9050;48.746;9.232;2023-02-12T08:01:52;1.40;;;1.40;;
17848;SDS011;9050;48.746;9.232;2023-02-12T08:04:20;1.30;;;1.30;;
17848;SDS011;9050;48.746;9.232;2023-02-12T08:06:50;1.20;;;1.20;;
17848;SDS011;9050;48.746;9.232;2023-02-12T08:09:19;1.23;;;1.23;;
17848;SDS011;9050;48.746;9.232;2023-02-12T08:11:47;1.30;;;1.30;;
17848;SDS011;9050;48.746;9.232;2023-02-12T08:14:17;1.30;;;1.30;;
17848;SDS011;9050;48.746;9.232;2023-02-12T08:16:45;0.90;;;0.90;;
17848;SDS011;9050;48.746;9.232;2023-02-12T08:19:13;1.23;;;1.23;;
17848;SDS011;9050;48.746;9.232;2023-02-12T08:21:40;1.17;;;1.17;;
17848;SDS011;9050;48.746;9.232;2023-02-12T08:24:08;1.10;;;1.10;;
17848;SDS011;9050;48.746;9.232;2023-02-12T08:26:36;1.30;;;1.30;;
17848;SDS011;9050;48.746;9.232;2023-02-12T08:29:04;1.20;;;1.20;;
17848;SDS011;9050;48.746;9.232;2023-02-12T08:31:34;1.13;;;1.13;;
17848;SDS011;9050;48.746;9.232;2023-02-12T08:34:02;0.97;;;0.97;;
17848;SDS011;9050;48.746;9.232;2023-02-12T08:36:30;1.13;;;1.13;;
17848;SDS011;9050;48.746;9.232;2023-02-12T08:39:04;1.07;;;1.07;;
17848;SDS011;9050;48.746;9.232;2023-02-12T08:41:32;1.00;;;1.00;;
17848;SDS011;9050;48.746;9.232;2023-02-12T08:44:00;1.10;;;1.10;;
17848;SDS011;9050;48.746;9.232;2023-02-12T08:46:28;1.03;;;1.03;;
17848;SDS011;9050;48.746;9.232;2023-02-12T08:49:00;1.13;;;1.13;;
17848;SDS011;9050;48.746;9.232;2023-02-12T08:51:29;1.00;;;1.00;;
17848;SDS011;9050;48.746;9.232;2023-02-12T08:53:58;1.30;;;1.30;;
17848;SDS011;9050;48.746;9.232;2023-02-12T08:56:26;1.10;;;1.10;;
17848;SDS011;9050;48.746;9.232;2023-02-12T08:58:55;1.20;;;1.20;;
17848;SDS011;9050;48.746;9.232;2023-02-12T09:01:23;1.00;;;1.00;;
17848;SDS011;9050;48.746;9.232;2023-02-12T09:03:51;0.90;;;0.90;;
17848;SDS011;9050;48.746;9.232;2023-02-12T09:06:20;1.00;;;1.00;;
17848;SDS011;9050;48.746;9.232;2023-02-12T09:08:49;0.70;;;0.70;;
17848;SDS011;9050;48.746;9.232;2023-02-12T09:11:17;0.80;;;0.80;;
17848;SDS011;9050;48.746;9.232;2023-02-12T09:13:48;0.80;;;0.80;;
17848;SDS011;9050;48.746;9.232;2023-02-12T09:16:15;0.90;;;0.90;;
17848;SDS011;9050;48.746;9.232;2023-02-12T09:18:42;1.13;;;1.13;;
17848;SDS011;9050;48.746;9.232;2023-02-12T09:21:10;0.83;;;0.83;;
17848;SDS011;9050;48.746;9.232;2023-02-12T09:23:42;0.90;;;0.90;;
17848;SDS011;9050;48.746;9.232;2023-02-12T09:26:09;0.80;;;0.80;;
17848;SDS011;9050;48.746;9.232;2023-02-12T09:28:38;0.90;;;0.90;;
17848;SDS011;9050;48.746;9.232;2023-02-12T09:31:05;0.80;;;0.80;;
17848;SDS011;9050;48.746;9.232;2023-02-12T09:33:32;0.80;;;0.80;;
17848;SDS011;9050;48.746;9.232;2023-02-12T09:36:00;1.13;;;1.13;;
17848;SDS011;9050;48.746;9.232;2023-02-12T09:38:28;0.90;;;0.90;;
17848;SDS011;9050;48.746;9.232;2023-02-12T09:41:01;0.97;;;0.97;;
17848;SDS011;9050;48.746;9.232;2023-02-12T09:43:39;1.00;;;1.00;;
17848;SDS011;9050;48.746;9.232;2023-02-12T09:46:10;1.00;;;1.00;;
17848;SDS011;9050;48.746;9.232;2023-02-12T09:48:47;0.90;;;0.90;;
17848;SDS011;9050;48.746;9.232;2023-02-12T09:51:21;0.83;;;0.83;;
17848;SDS011;9050;48.746;9.232;2023-02-12T09:53:51;0.90;;;0.90;;
17848;SDS011;9050;48.746;9.232;2023-02-12T09:56:34;0.80;;;0.80;;
17848;SDS011;9050;48.746;9.232;2023-02-12T09:59:04;1.13;;;1.13;;
17848;SDS011;9050;48.746;9.232;2023-02-12T10:01:32;0.93;;;0.93;;
17848;SDS011;9050;48.746;9.232;2023-02-12T10:04:00;1.00;;;1.00;;
17848;SDS011;9050;48.746;9.232;2023-02-12T10:06:32;0.80;;;0.80;;
17848;SDS011;9050;48.746;9.232;2023-02-12T10:09:14;0.90;;;0.90;;
17848;SDS011;9050;48.746;9.232;2023-02-12T10:11:54;0.90;;;0.90;;
17848;SDS011;9050;48.746;9.232;2023-02-12T10:17:22;0.90;;;0.90;;
17848;SDS011;9050;48.746;9.232;2023-02-12T10:20:12;1.00;;;1.00;;
17848;SDS011;9050;48.746;9.232;2023-02-12T10:23:03;0.97;;;0.97;;
17848;SDS011;9050;48.746;9.232;2023-02-12T10:25:43;0.97;;;0.97;;
17848;SDS011;9050;48.746;9.232;2023-02-12T10:28:16;0.80;;;0.80;;
17848;SDS011;9050;48.746;9.232;2023-02-12T10:30:50;1.10;;;1.10;;
17848;SDS011;9050;48.746;9.232;2023-02-12T10:33:20;0.90;;;0.90;;
17848;SDS011;9050;48.746;9.232;2023-02-12T10:35:53;1.07;;;1.07;;
17848;SDS011;9050;48.746;9.232;2023-02-12T10:38:25;0.70;;;0.70;;
17848;SDS011;9050;48.746;9.232;2023-02-12T10:40:55;0.90;;;0.90;;
17848;SDS011;9050;48.746;9.232;2023-02-12T10:43:27;1.00;;;1.00;;
17848;SDS011;9050;48.746;9.232;2023-02-12T10:45:54;0.87;;;0.87;;
17848;SDS011;9050;48.746;9.232;2023-02-12T10:48:22;0.77;;;0.77;;
17848;SDS011;9050;48.746;9.232;2023-02-12T10:50:56;0.90;;;0.90;;
17848;SDS011;9050;48.746;9.232;2023-02-12T10:53:31;0.87;;;0.87;;
17848;SDS011;9050;48.746;9.232;2023-02-12T10:56:09;0.90;;;0.90;;
17848;SDS011;9050;48.746;9.232;2023-02-12T10:58:50;1.00;;;1.00;;
17848;SDS011;9050;48.746;9.232;2023-02-12T11:01:19;1.00;;;1.00;;
17848;SDS011;9050;48.746;9.232;2023-02-12T11:03:50;0.73;;;0.73;;
17848;SDS011;9050;48.746;9.232;2023-02-12T11:06:18;0.70;;;0.70;;
17848;SDS011;9050;48.746;9.232;2023-02-12T11:08:46;0.67;;;0.67;;
17848;SDS011;9050;48.746;9.232;2023-02-12T11:11:14;0.80;;;0.80;;
17848;SDS011;9050;48.746;9.232;2023-02-12T11:13:46;0.70;;;0.70;;
17848;SDS011;9050;48.746;9.232;2023-02-12T11:16:26;0.90;;;0.90;;
17848;SDS011;9050;48.746;9.232;2023-02-12T11:18:58;0.73;;;0.73;;
17848;SDS011;9050;48.746;9.232;2023-02-12T11:21:27;1.00;;;1.00;;
17848;SDS011;9050;48.746;9.232;2023-02-12T11:23:54;0.90;;;0.90;;
17848;SDS011;9050;48.746;9.232;2023-02-12T11:26:23;0.77;;;0.77;;
17848;SDS011;9050;48.746;9.232;2023-02-12T11:28:56;0.97;;;0.97;;
17848;SDS011;9050;48.746;9.232;2023-02-12T11:31:24;0.80;;;0.80;;
17848;SDS011;9050;48.746;9.232;2023-02-12T11:34:05;0.70;;;0.70;;
17848;SDS011;9050;48.746;9.232;2023-02-12T11:36:35;0.90;;;0.90;;
17848;SDS011;9050;48.746;9.232;2023-02-12T11:39:03;0.80;;;0.80;;
17848;SDS011;9050;48.746;9.232;2023-02-12T11:41:32;0.80;;;0.80;;
17848;SDS011;9050;48.746;9.232;2023-02-12T11:44:04;0.80;;;0.80;;
17848;SDS011;9050;48.746;9.232;2023-02-12T11:46:35;0.77;;;0.77;;
17848;SDS011;9050;48.746;9.232;2023-02-12T11:49:03;0.63;;;0.63;;
17848;SDS011;9050;48.746;9.232;2023-02-12T11:51:33;0.63;;;0.63;;
17848;SDS011;9050;48.746;9.232;2023-02-12T11:54:02;0.77;;;0.77;;
17848;SDS011;9050;48.746;9.232;2023-02-12T11:56:41;1.20;;;1.20;;
17848;SDS011;9050;48.746;9.232;2023-02-12T11:59:16;0.90;;;0.90;;
17848;SDS011;9050;48.746;9.232;2023-02-12T12:01:54;1.00;;;1.00;;
17848;SDS011;9050;48.746;9.232;2023-02-12T12:04:26;0.70;;;0.70;;
17848;SDS011;9050;48.746;9.232;2023-02-12T12:06:56;0.80;;;0.80;;
17848;SDS011;9050;48.746;9.232;2023-02-12T12:09:28;1.10;;;1.10;;
17848;SDS011;9050;48.746;9.232;2023-02-12T12:12:02;1.00;;;1.00;;
17848;SDS011;9050;48.746;9.232;2023-02-12T12:14:39;0.77;;;0.77;;
17848;SDS011;9050;48.746;9.232;2023-02-12T12:17:29;0.87;;;0.87;;
17848;SDS011;9050;48.746;9.232;2023-02-12T12:20:22;0.83;;;0.83;;
17848;SDS011;9050;48.746;9.232;2023-02-12T12:22:53;0.87;;;0.87;;
17848;SDS011;9050;48.746;9.232;2023-02-12T12:25:26;0.80;;;0.80;;
17848;SDS011;9050;48.746;9.232;2023-02-12T12:27:59;0.70;;;0.70;;
17848;SDS011;9050;48.746;9.232;2023-02-12T12:30:38;0.80;;;0.80;;
17848;SDS011;9050;48.746;9.232;2023-02-12T12:33:23;0.70;;;0.70;;
17848;SDS011;9050;48.746;9.232;2023-02-12T12:36:07;0.90;;;0.90;;
17848;SDS011;9050;48.746;9.232;2023-02-12T12:38:55;0.80;;;0.80;;
17848;SDS011;9050;48.746;9.232;2023-02-12T12:41:33;1.00;;;1.00;;
17848;SDS011;9050;48.746;9.232;2023-02-12T12:44:18;0.90;;;0.90;;
17848;SDS011;9050;48.746;9.232;2023-02-12T12:46:59;0.90;;;0.90;;
17848;SDS011;9050;48.746;9.232;2023-02-12T12:49:41;0.97;;;0.97;;
17848;SDS011;9050;48.746;9.232;2023-02-12T12:52:20;0.80;;;0.80;;
17848;SDS011;9050;48.746;9.232;2023-02-12T12:57:54;0.90;;;0.90;;
17848;SDS011;9050;48.746;9.232;2023-02-12T13:00:30;0.90;;;0.90;;
17848;SDS011;9050;48.746;9.232;2023-02-12T13:03:29;0.70;;;0.70;;
17848;SDS011;9050;48.746;9.232;2023-02-12T13:06:13;1.00;;;1.00;;
17848;SDS011;9050;48.746;9.232;2023-02-12T13:08:58;0.80;;;0.80;;
17848;SDS011;9050;48.746;9.232;2023-02-12T13:11:48;0.90;;;0.90;;
17848;SDS011;9050;48.746;9.232;2023-02-12T13:14:30;1.00;;;1.00;;
17848;SDS011;9050;48.746;9.232;2023-02-12T13:17:04;0.80;;;0.80;;
17848;SDS011;9050;48.746;9.232;2023-02-12T13:19:43;0.70;;;0.70;;
17848;SDS011;9050;48.746;9.232;2023-02-12T13:22:20;0.90;;;0.90;;
17848;SDS011;9050;48.746;9.232;2023-02-12T13:24:51;0.83;;;0.83;;
17848;SDS011;9050;48.746;9.232;2023-02-12T13:27:23;0.87;;;0.87;;
17848;SDS011;9050;48.746;9.232;2023-02-12T13:29:53;0.90;;;0.90;;
17848;SDS011;9050;48.746;9.232;2023-02-12T13:32:26;0.90;;;0.90;;
17848;SDS011;9050;48.746;9.232;2023-02-12T13:34:56;1.00;;;1.00;;
17848;SDS011;9050;48.746;9.232;2023-02-12T13:37:29;0.70;;;0.70;;
17848;SDS011;9050;48.746;9.232;2023-02-12T13:40:02;1.00;;;1.00;;
17848;SDS011;9050;48.746;9.232;2023-02-12T13:42:37;0.90;;;0.90;;
17848;SDS011;9050;48.746;9.232;2023-02-12T13:45:19;1.00;;;1.00;;
17848;SDS011;9050;48.746;9.232;2023-02-12T13:48:02;0.90;;;0.90;;
17848;SDS011;9050;48.746;9.232;2023-02-12T13:50:44;1.00;;;1.00;;
17848;SDS011;9050;48.746;9.232;2023-02-12T13:53:18;0.80;;;0.80;;
17848;SDS011;9050;48.746;9.232;2023-02-12T13:55:54;0.80;;;0.80;;
17848;SDS011;9050;48.746;9.232;2023-02-12T14:01:34;1.00;;;1.00;;
17848;SDS011;9050;48.746;9.232;2023-02-12T14:04:22;0.80;;;0.80;;
17848;SDS011;9050;48.746;9.232;2023-02-12T14:06:58;1.10;;;1.10;;
17848;SDS011;9050;48.746;9.232;2023-02-12T14:09:31;0.90;;;0.90;;
17848;SDS011;9050;48.746;9.232;2023-02-12T14:12:02;0.70;;;0.70;;
17848;SDS011;9050;48.746;9.232;2023-02-12T14:14:33;1.00;;;1.00;;
17848;SDS011;9050;48.746;9.232;2023-02-12T14:20:05;0.97;;;0.97;;
17848;SDS011;9050;48.746;9.232;2023-02-12T14:25:30;0.90;;;0.90;;
17848;SDS011;9050;48.746;9.232;2023-02-12T14:28:05;0.90;;;0.90;;
17848;SDS011;9050;48.746;9.232;2023-02-12T14:30:39;0.80;;;0.80;;
17848;SDS011;9050;48.746;9.232;2023-02-12T14:33:10;0.93;;;0.93;;
17848;SDS011;9050;48.746;9.232;2023-02-12T14:35:46;1.00;;;1.00;;
17848;SDS011;9050;48.746;9.232;2023-02-12T14:41:27;0.83;;;0.83;;
17848;SDS011;9050;48.746;9.232;2023-02-12T14:47:08;0.80;;;0.80;;
17848;SDS011;9050;48.746;9.232;2023-02-12T14:50:12;0.77;;;0.77;;
17848;SDS011;9050;48.746;9.232;2023-02-12T14:52:43;0.70;;;0.70;;
17848;SDS011;9050;48.746;9.232;2023-02-12T14:55:18;0.80;;;0.80;;
17848;SDS011;9050;48.746;9.232;2023-02-12T14:57:55;0.80;;;0.80;;
17848;SDS011;9050;48.746;9.232;2023-02-12T15:00:25;0.80;;;0.80;;
17848;SDS011;9050;48.746;9.232;2023-02-12T15:02:56;0.80;;;0.80;;
17848;SDS011;9050;48.746;9.232;2023-02-12T15:05:28;0.80;;;0.80;;
17848;SDS011;9050;48.746;9.232;2023-02-12T15:07:58;0.83;;;0.83;;
17848;SDS011;9050;48.746;9.232;2023-02-12T15:10:28;0.80;;;0.80;;
17848;SDS011;9050;48.746;9.232;2023-02-12T15:13:04;1.00;;;1.00;;
17848;SDS011;9050;48.746;9.232;2023-02-12T15:15:41;0.70;;;0.70;;
17848;SDS011;9050;48.746;9.232;2023-02-12T15:18:18;0.80;;;0.80;;
17848;SDS011;9050;48.746;9.232;2023-02-12T15:20:53;1.00;;;1.00;;
17848;SDS011;9050;48.746;9.232;2023-02-12T15:23:32;0.80;;;0.80;;
17848;SDS011;9050;48.746;9.232;2023-02-12T15:26:02;0.73;;;0.73;;
17848;SDS011;9050;48.746;9.232;2023-02-12T15:28:31;1.10;;;1.10;;
17848;SDS011;9050;48.746;9.232;2023-02-12T15:31:01;1.10;;;1.10;;
17848;SDS011;9050;48.746;9.232;2023-02-12T15:33:35;0.90;;;0.90;;
17848;SDS011;9050;48.746;9.232;2023-02-12T15:36:05;0.73;;;0.73;;
17848;SDS011;9050;48.746;9.232;2023-02-12T15:38:35;0.90;;;0.90;;
17848;SDS011;9050;48.746;9.232;2023-02-12T15:41:04;0.80;;;0.80;;
17848;SDS011;9050;48.746;9.232;2023-02-12T15:43:33;1.00;;;1.00;;
17848;SDS011;9050;48.746;9.232;2023-02-12T15:46:06;0.77;;;0.77;;